Airfield :
LOGIN :

Register | Disclaimer

   EN    FR    IT 

 










Legend :    VFR   Marginal VFR   IFR   Intensive IFR   Very Intensive IFR
Visi :
Ceiling :
>= 8 km
>= 3000ft
5 to 8 km
1000 to 3000 ft
1500m to 5 km
500 to 1000 ft
800 to 1500m
200 to 500 ft
< 800m
< 200 ft
Symbols :   Thunderstorms  Fog  Heavy snow  Heavy precipitations  Wind > 20 kt
SIGMETs :     Misc.  Thunderstorms  Icing  Turbulence  Mountain Waves  Volcanic Ashes







- Airport Elevation : 333 ft


LIPL - Ghedi Brescia (Mil)

CURRENT METAR :
  • 200455Z /////KT 6000 NSC 08/08 Q1013 RMK SCT FEW100 VIS MIN 6000 WIND THR31 34002KT WHT

EXPIRED METARs :
  • 200355Z /////KT 8000 NSC 09/09 Q1013 RMK FEW FEW120 VIS MIN 8000 WIND THR31 02004KT BLU
  • 200255Z /////KT CAVOK 09/09 Q1013 RMK FEW FEW120 VIS MIN 9999 WIND THR31 01004KT BLU

TAF TAF LIPL
Valid from the 20 at 06:00 until the 20 at 15:00 UTC


200500Z 2006/2015 VRB03KT 5000 BR SCT040
BECMG 2008/2010 8000 NSW SCT050
No reported NOTAMs for that airfield.



MET'MAP, your aeronautical weather chart ! - Copyright ORBIFLY December 2007 - Disclaimer

ORBIFLY MET'MAP TEAM :

Programming & Development : Alexandra Zaïnal
Concept & Development : Baudouin d'Aumeries
Co-Development & Prog : Marc-Olivier Méhu
Technical & hardware support : Manuel Goepfert

Contact : metmap@orbifly.com




SOURCES & CREDITS :

   NOAA